createdAt,value
2023-05-02T00:01:52.702Z,1.50
2023-05-02T00:04:54.875Z,1.90
2023-05-02T00:07:57.254Z,1.98
2023-05-02T00:10:59.411Z,2.03
2023-05-02T00:14:01.680Z,1.70
2023-05-02T00:17:03.870Z,1.73
2023-05-02T00:20:06.688Z,1.63
2023-05-02T00:23:08.900Z,1.95
2023-05-02T00:26:11.155Z,1.70
2023-05-02T00:29:18.231Z,2.20
2023-05-02T00:32:20.932Z,1.80
2023-05-02T00:35:23.123Z,1.75
2023-05-02T00:38:25.334Z,1.92
2023-05-02T00:41:27.630Z,2.03
2023-05-02T00:44:29.931Z,2.03
2023-05-02T00:47:33.018Z,1.55
2023-05-02T00:50:40.486Z,1.80
2023-05-02T00:53:42.825Z,2.00
2023-05-02T00:56:45.228Z,1.90
2023-05-02T00:59:47.505Z,1.90
2023-05-02T01:02:59.277Z,1.70
2023-05-02T01:06:07.683Z,2.05
2023-05-02T01:09:37.945Z,1.70
2023-05-02T01:12:53.059Z,2.20
2023-05-02T01:15:56.871Z,2.10
2023-05-02T01:18:59.830Z,1.80
2023-05-02T01:22:09.438Z,2.13
2023-05-02T01:25:26.794Z,1.90
2023-05-02T01:28:53.699Z,1.80
2023-05-02T01:31:56.937Z,2.03
2023-05-02T01:35:01.176Z,1.90
2023-05-02T01:38:04.158Z,1.52
2023-05-02T01:41:07.343Z,1.80
2023-05-02T01:44:10.076Z,1.88
2023-05-02T01:47:12.754Z,2.42
2023-05-02T01:50:18.615Z,2.15
2023-05-02T01:53:22.482Z,1.80
2023-05-02T01:56:25.376Z,2.28
2023-05-02T01:59:28.968Z,2.15
2023-05-02T02:02:31.261Z,1.80
2023-05-02T02:05:35.095Z,1.77
2023-05-02T02:08:38.975Z,2.05
2023-05-02T02:11:49.415Z,1.90
2023-05-02T02:14:57.462Z,1.90
2023-05-02T02:18:09.969Z,1.63
2023-05-02T02:21:13.356Z,1.80
2023-05-02T02:24:17.091Z,1.50
2023-05-02T02:27:19.432Z,1.90
2023-05-02T02:30:21.868Z,1.70
2023-05-02T02:33:28.059Z,1.80
2023-05-02T02:36:44.785Z,1.60
2023-05-02T02:40:17.507Z,1.70
2023-05-02T02:43:27.263Z,1.60
2023-05-02T02:46:35.341Z,1.90
2023-05-02T02:49:37.844Z,1.60
2023-05-02T02:52:42.980Z,1.67
2023-05-02T02:55:48.468Z,1.50
2023-05-02T02:59:07.754Z,1.98
2023-05-02T03:02:13.201Z,2.10
2023-05-02T03:05:15.569Z,1.90
2023-05-02T03:08:17.864Z,1.65
2023-05-02T03:11:20.612Z,1.85
2023-05-02T03:14:23.360Z,1.60
2023-05-02T03:17:26.322Z,1.80
2023-05-02T03:20:28.876Z,2.22
2023-05-02T03:23:31.195Z,2.10
2023-05-02T03:26:33.838Z,1.83
2023-05-02T03:29:36.401Z,2.17
2023-05-02T03:32:38.769Z,2.10
2023-05-02T03:35:42.409Z,2.20
2023-05-02T03:38:45.665Z,1.90
2023-05-02T03:41:49.209Z,2.17
2023-05-02T03:44:54.769Z,2.10
2023-05-02T03:47:57.767Z,2.17
2023-05-02T03:51:01.589Z,2.28
2023-05-02T03:54:04.971Z,2.70
2023-05-02T03:57:08.906Z,1.97
2023-05-02T04:00:12.185Z,2.25
2023-05-02T04:03:14.321Z,2.40
2023-05-02T04:06:19.560Z,2.20
2023-05-02T04:09:27.946Z,2.35
2023-05-02T04:12:34.991Z,2.40
2023-05-02T04:15:37.810Z,2.30
2023-05-02T04:18:41.200Z,2.33
2023-05-02T04:21:44.864Z,2.35
2023-05-02T04:24:47.558Z,2.03
2023-05-02T04:27:50.517Z,2.20
2023-05-02T04:30:56.512Z,2.60
2023-05-02T04:34:00.151Z,2.58
2023-05-02T04:37:06.342Z,2.40
2023-05-02T04:40:09.920Z,2.60
2023-05-02T04:43:13.917Z,2.22
2023-05-02T04:46:24.647Z,2.33
2023-05-02T04:49:27.926Z,2.80
2023-05-02T04:52:30.423Z,2.28
2023-05-02T04:55:33.022Z,2.17
2023-05-02T04:58:35.408Z,2.17
2023-05-02T05:01:40.894Z,2.42
2023-05-02T05:04:46.007Z,2.50
2023-05-02T05:07:48.677Z,3.20
2023-05-02T05:10:53.322Z,2.55
2023-05-02T05:13:57.147Z,2.33
2023-05-02T05:16:59.996Z,2.38
2023-05-02T05:20:03.571Z,2.75
2023-05-02T05:23:06.697Z,2.40
2023-05-02T05:26:19.204Z,2.35
2023-05-02T05:29:23.571Z,2.40
2023-05-02T05:32:26.085Z,2.65
2023-05-02T05:35:28.740Z,2.45
2023-05-02T05:38:32.773Z,3.03
2023-05-02T05:41:35.240Z,2.45
2023-05-02T05:44:41.015Z,2.58
2023-05-02T05:47:43.949Z,2.97
2023-05-02T05:50:46.855Z,2.78
2023-05-02T05:53:49.098Z,2.72
2023-05-02T05:56:52.147Z,3.10
2023-05-02T05:59:55.967Z,2.30
2023-05-02T06:02:59.356Z,2.60
2023-05-02T06:06:05.979Z,2.65
2023-05-02T06:09:08.896Z,2.60
2023-05-02T06:12:16.494Z,2.63
2023-05-02T06:15:22.059Z,2.60
2023-05-02T06:18:27.625Z,2.63
2023-05-02T06:21:30.251Z,2.10
2023-05-02T06:24:32.681Z,2.15
2023-05-02T06:27:35.149Z,2.42
2023-05-02T06:30:37.489Z,2.30
2023-05-02T06:33:39.703Z,2.63
2023-05-02T06:36:41.897Z,2.30
2023-05-02T06:39:44.099Z,2.20
2023-05-02T06:42:46.445Z,2.30
2023-05-02T06:46:00.001Z,2.42
2023-05-02T06:49:02.207Z,2.30
2023-05-02T06:52:06.411Z,2.20
2023-05-02T06:55:09.803Z,2.47
2023-05-02T06:58:36.054Z,2.15
2023-05-02T07:01:44.237Z,2.13
2023-05-02T07:04:47.155Z,2.30
2023-05-02T07:07:49.396Z,2.05
2023-05-02T07:10:55.018Z,2.60
2023-05-02T07:14:00.635Z,2.65
2023-05-02T07:17:11.593Z,2.13
2023-05-02T07:20:14.086Z,2.08
2023-05-02T07:23:16.259Z,2.30
2023-05-02T07:26:21.131Z,2.35
2023-05-02T07:29:24.234Z,2.30
2023-05-02T07:32:27.642Z,2.00
2023-05-02T07:35:35.564Z,2.20
2023-05-02T07:38:38.332Z,2.25
2023-05-02T07:41:41.459Z,1.97
2023-05-02T07:44:43.675Z,2.10
2023-05-02T07:47:53.642Z,2.40
2023-05-02T07:51:12.053Z,2.00
2023-05-02T07:54:22.842Z,2.10
2023-05-02T07:57:27.713Z,2.08
2023-05-02T08:00:31.076Z,2.40
2023-05-02T08:03:47.751Z,1.97
2023-05-02T08:07:02.514Z,2.05
2023-05-02T08:10:10.234Z,1.98
2023-05-02T08:13:13.975Z,2.07
2023-05-02T08:16:17.218Z,1.77
2023-05-02T08:19:21.559Z,1.98
2023-05-02T08:22:23.864Z,1.83
2023-05-02T08:25:26.133Z,2.40
2023-05-02T08:28:33.100Z,2.38
2023-05-02T08:31:39.082Z,2.08
2023-05-02T08:34:46.258Z,1.80
2023-05-02T08:38:03.800Z,2.00
2023-05-02T08:41:19.718Z,1.75
2023-05-02T08:44:23.075Z,2.30
2023-05-02T08:47:26.529Z,1.80
2023-05-02T08:50:33.736Z,2.28
2023-05-02T08:54:04.781Z,2.03
2023-05-02T08:57:11.844Z,2.28
2023-05-02T09:00:19.098Z,2.17
2023-05-02T09:03:23.775Z,2.30
2023-05-02T09:06:27.957Z,1.83
2023-05-02T09:09:35.499Z,1.75
2023-05-02T09:12:37.797Z,1.77
2023-05-02T09:15:41.361Z,2.10
2023-05-02T09:19:05.359Z,1.63
2023-05-02T09:22:23.508Z,1.50
2023-05-02T09:25:39.140Z,1.90
2023-05-02T09:29:10.147Z,1.85
2023-05-02T09:32:19.455Z,1.95
2023-05-02T09:35:31.142Z,1.88
2023-05-02T09:38:40.138Z,1.97
2023-05-02T09:41:55.146Z,1.90
2023-05-02T09:45:03.309Z,1.42
2023-05-02T09:48:25.072Z,1.73
2023-05-02T09:51:28.190Z,1.90
2023-05-02T09:54:41.764Z,2.13
2023-05-02T09:57:49.850Z,2.20
2023-05-02T10:00:54.865Z,1.63
2023-05-02T10:03:59.187Z,1.80
2023-05-02T10:07:06.858Z,1.88
2023-05-02T10:10:12.943Z,1.87
2023-05-02T10:16:57.268Z,1.30
2023-05-02T10:20:08.097Z,1.80
2023-05-02T10:23:10.484Z,2.00
2023-05-02T10:26:15.735Z,1.63
2023-05-02T10:29:18.321Z,1.98
2023-05-02T10:32:23.314Z,1.95
2023-05-02T10:35:26.622Z,1.85
2023-05-02T10:38:48.425Z,1.67
2023-05-02T10:41:54.418Z,1.77
2023-05-02T10:48:20.909Z,1.63
2023-05-02T10:55:21.110Z,1.70
2023-05-02T10:58:25.855Z,1.60
2023-05-02T11:01:39.139Z,1.70
2023-05-02T11:05:27.848Z,1.50
2023-05-02T11:08:32.740Z,1.70
2023-05-02T11:11:43.793Z,1.38
2023-05-02T11:14:48.521Z,1.47
2023-05-02T11:18:07.981Z,1.88
2023-05-02T11:21:28.879Z,1.67
2023-05-02T11:24:44.337Z,1.83
2023-05-02T11:27:49.385Z,1.80
2023-05-02T11:30:51.583Z,1.40
2023-05-02T11:34:02.402Z,1.67
2023-05-02T11:37:12.371Z,1.50
2023-05-02T11:40:15.030Z,2.15
2023-05-02T11:43:19.289Z,1.90
2023-05-02T11:46:21.710Z,1.43
2023-05-02T11:49:24.549Z,1.95
2023-05-02T11:52:26.703Z,2.05
2023-05-02T11:55:31.456Z,1.70
2023-05-02T11:58:40.237Z,2.08
2023-05-02T12:01:50.122Z,2.00
2023-05-02T12:05:06.384Z,1.90
2023-05-02T12:08:19.235Z,2.33
2023-05-02T12:11:21.580Z,1.88
2023-05-02T12:14:29.949Z,1.70
2023-05-02T12:17:33.163Z,1.50
2023-05-02T12:20:36.590Z,1.60
2023-05-02T12:23:40.131Z,1.58
2023-05-02T12:26:42.312Z,1.60
2023-05-02T12:29:46.031Z,1.33
2023-05-02T12:32:59.213Z,1.70
2023-05-02T12:36:08.254Z,1.80
2023-05-02T12:39:10.406Z,1.88
2023-05-02T12:42:15.536Z,1.83
2023-05-02T12:45:18.194Z,1.90
2023-05-02T12:48:29.572Z,1.80
2023-05-02T12:51:32.919Z,1.70
2023-05-02T12:54:35.107Z,2.10
2023-05-02T12:57:37.249Z,2.00
2023-05-02T13:00:41.578Z,1.83
2023-05-02T13:03:44.318Z,1.58
2023-05-02T13:06:47.245Z,1.40
2023-05-02T13:09:49.500Z,1.50
2023-05-02T13:12:52.700Z,1.52
2023-05-02T13:15:54.911Z,2.17
2023-05-02T13:18:57.325Z,1.40
2023-05-02T13:21:59.612Z,2.30
2023-05-02T13:25:01.830Z,1.33
2023-05-02T13:28:04.091Z,1.47
2023-05-02T13:31:06.388Z,1.83
2023-05-02T13:34:08.580Z,1.65
2023-05-02T13:37:11.190Z,1.50
2023-05-02T13:40:13.427Z,1.80
2023-05-02T13:43:15.624Z,1.50
2023-05-02T13:46:17.919Z,1.45
2023-05-02T13:49:20.342Z,2.00
2023-05-02T13:52:22.570Z,1.73
2023-05-02T13:55:25.146Z,1.70
2023-05-02T13:58:27.404Z,1.70
2023-05-02T14:01:29.781Z,1.45
2023-05-02T14:04:31.976Z,1.60
2023-05-02T14:07:34.209Z,1.80
2023-05-02T14:10:37.930Z,1.80
2023-05-02T14:13:40.211Z,1.70
2023-05-02T14:16:42.537Z,1.80
2023-05-02T14:19:44.672Z,1.60
2023-05-02T14:22:46.879Z,1.60
2023-05-02T14:25:49.020Z,1.75
2023-05-02T14:28:51.266Z,1.57
2023-05-02T14:31:53.506Z,1.52
2023-05-02T14:34:55.725Z,1.70
2023-05-02T14:37:57.893Z,1.80
2023-05-02T14:41:02.584Z,2.00
2023-05-02T14:44:04.812Z,1.55
2023-05-02T14:47:07.029Z,1.80
2023-05-02T14:50:09.713Z,1.50
2023-05-02T14:53:12.024Z,1.60
2023-05-02T14:56:15.979Z,1.50
2023-05-02T14:59:18.136Z,1.77
2023-05-02T15:02:21.831Z,1.63
2023-05-02T15:05:24.284Z,1.73
2023-05-02T15:08:26.744Z,1.70
2023-05-02T15:11:28.911Z,1.60
2023-05-02T15:14:31.172Z,1.70
2023-05-02T15:17:33.322Z,1.70
2023-05-02T15:20:35.577Z,1.47
2023-05-02T15:23:37.958Z,1.85
2023-05-02T15:26:40.979Z,1.60
2023-05-02T15:29:43.121Z,1.53
2023-05-02T15:32:45.311Z,1.42
2023-05-02T15:35:55.091Z,1.58
2023-05-02T15:38:57.458Z,1.42
2023-05-02T15:42:04.629Z,1.52
2023-05-02T15:45:07.399Z,1.67
2023-05-02T15:48:09.714Z,1.88
2023-05-02T15:51:13.543Z,1.47
2023-05-02T15:54:16.106Z,1.73
2023-05-02T15:57:19.249Z,1.50
2023-05-02T16:00:24.347Z,1.73
2023-05-02T16:03:26.588Z,1.58
2023-05-02T16:06:28.913Z,1.55
2023-05-02T16:09:31.301Z,1.70
2023-05-02T16:12:33.445Z,1.70
2023-05-02T16:15:35.690Z,1.80
2023-05-02T16:18:37.805Z,1.40
2023-05-02T16:21:43.143Z,1.50
2023-05-02T16:24:45.946Z,1.85
2023-05-02T16:27:48.063Z,1.35
2023-05-02T16:30:50.607Z,1.80
2023-05-02T16:33:53.456Z,1.92
2023-05-02T16:36:55.649Z,2.00
2023-05-02T16:39:58.860Z,1.83
2023-05-02T16:43:01.424Z,1.50
2023-05-02T16:46:05.922Z,1.75
2023-05-02T16:49:08.182Z,1.80
2023-05-02T16:52:10.345Z,1.80
2023-05-02T16:55:12.697Z,1.77
2023-05-02T16:58:15.050Z,1.73
2023-05-02T17:01:17.364Z,1.90
2023-05-02T17:04:19.628Z,1.60
2023-05-02T17:07:21.884Z,1.88
2023-05-02T17:10:27.032Z,2.40
2023-05-02T17:13:29.411Z,1.90
2023-05-02T17:16:31.620Z,1.80
2023-05-02T17:19:33.967Z,2.08
2023-05-02T17:22:37.632Z,2.13
2023-05-02T17:25:39.786Z,2.35
2023-05-02T17:28:43.498Z,2.15
2023-05-02T17:31:45.956Z,2.13
2023-05-02T17:34:48.131Z,2.28
2023-05-02T17:37:50.278Z,2.30
2023-05-02T17:40:53.032Z,2.60
2023-05-02T17:43:55.228Z,2.25
2023-05-02T17:46:58.065Z,2.60
2023-05-02T17:50:02.690Z,2.50
2023-05-02T17:53:05.929Z,2.23
2023-05-02T17:56:08.092Z,2.65
2023-05-02T17:59:13.146Z,2.50
2023-05-02T18:02:17.605Z,2.60
2023-05-02T18:05:19.718Z,3.08
2023-05-02T18:08:22.111Z,2.30
2023-05-02T18:11:26.758Z,2.63
2023-05-02T18:14:29.146Z,2.50
2023-05-02T18:17:31.806Z,3.20
2023-05-02T18:20:40.950Z,2.65
2023-05-02T18:23:43.067Z,2.70
2023-05-02T18:26:45.476Z,2.50
2023-05-02T18:29:47.636Z,2.53
2023-05-02T18:32:49.849Z,2.60
2023-05-02T18:35:52.140Z,2.60
2023-05-02T18:38:55.097Z,2.35
2023-05-02T18:41:57.196Z,2.67
2023-05-02T18:44:59.371Z,2.47
2023-05-02T18:48:02.949Z,2.50
2023-05-02T18:51:05.815Z,2.55
2023-05-02T18:54:08.013Z,2.43
2023-05-02T18:57:11.136Z,2.63
2023-05-02T19:00:14.041Z,2.58
2023-05-02T19:03:16.451Z,2.43
2023-05-02T19:06:18.903Z,2.78
2023-05-02T19:09:21.670Z,3.00
2023-05-02T19:12:23.930Z,2.42
2023-05-02T19:15:26.984Z,2.42
2023-05-02T19:18:29.129Z,2.90
2023-05-02T19:21:31.522Z,3.00
2023-05-02T19:24:33.764Z,2.77
2023-05-02T19:27:35.959Z,3.20
2023-05-02T19:30:41.914Z,2.95
2023-05-02T19:33:50.191Z,3.00
2023-05-02T19:36:52.363Z,2.97
2023-05-02T19:39:54.570Z,2.90
2023-05-02T19:42:56.811Z,3.28
2023-05-02T19:45:59.401Z,2.80
2023-05-02T19:49:01.600Z,3.08
2023-05-02T19:52:03.919Z,3.20
2023-05-02T19:55:07.436Z,3.00
2023-05-02T19:58:09.821Z,2.92
2023-05-02T20:01:12.117Z,3.10
2023-05-02T20:04:14.428Z,3.13
2023-05-02T20:07:16.557Z,2.80
2023-05-02T20:10:19.014Z,3.72
2023-05-02T20:13:21.130Z,2.92
2023-05-02T20:16:23.327Z,4.15
2023-05-02T20:19:27.689Z,3.50
2023-05-02T20:22:29.807Z,3.33
2023-05-02T20:25:32.012Z,3.47
2023-05-02T20:28:34.100Z,3.90
2023-05-02T20:31:36.379Z,3.30
2023-05-02T20:34:40.271Z,3.67
2023-05-02T20:37:42.718Z,3.70
2023-05-02T20:40:45.657Z,3.67
2023-05-02T20:43:47.824Z,3.60
2023-05-02T20:46:51.530Z,3.55
2023-05-02T20:49:53.994Z,3.45
2023-05-02T20:52:56.535Z,3.58
2023-05-02T20:55:58.651Z,3.73
2023-05-02T20:59:00.881Z,3.97
2023-05-02T21:02:03.220Z,3.90
2023-05-02T21:05:05.673Z,3.70
2023-05-02T21:08:07.790Z,3.60
2023-05-02T21:11:14.447Z,4.20
2023-05-02T21:14:16.954Z,3.88
2023-05-02T21:17:19.241Z,3.85
2023-05-02T21:20:21.527Z,3.88
2023-05-02T21:23:23.748Z,3.65
2023-05-02T21:26:26.003Z,3.73
2023-05-02T21:29:28.166Z,3.65
2023-05-02T21:32:30.329Z,3.85
2023-05-02T21:35:34.093Z,3.87
2023-05-02T21:38:36.295Z,3.47
2023-05-02T21:41:38.601Z,3.80
2023-05-02T21:44:40.737Z,3.80
2023-05-02T21:47:43.176Z,3.83
2023-05-02T21:50:45.419Z,3.45
2023-05-02T21:53:47.617Z,3.90
2023-05-02T21:56:49.724Z,3.27
2023-05-02T21:59:51.894Z,3.53
2023-05-02T22:02:54.172Z,3.10
2023-05-02T22:05:57.553Z,3.10
2023-05-02T22:08:59.743Z,3.33
2023-05-02T22:12:02.942Z,3.30
2023-05-02T22:15:09.582Z,3.55
2023-05-02T22:18:13.793Z,2.90
2023-05-02T22:21:16.104Z,3.28
2023-05-02T22:24:18.470Z,3.40
2023-05-02T22:27:20.677Z,3.27
2023-05-02T22:30:22.830Z,3.10
2023-05-02T22:33:25.396Z,3.10
2023-05-02T22:36:27.814Z,3.27
2023-05-02T22:39:30.600Z,3.47
2023-05-02T22:42:32.725Z,3.13
2023-05-02T22:45:36.560Z,3.40
2023-05-02T22:48:38.897Z,3.35
2023-05-02T22:51:41.459Z,3.25
2023-05-02T22:54:44.721Z,3.15
2023-05-02T22:57:47.501Z,3.30
2023-05-02T23:00:49.752Z,3.47
2023-05-02T23:03:51.994Z,3.15
2023-05-02T23:06:54.302Z,3.50
2023-05-02T23:09:56.606Z,3.13
2023-05-02T23:12:58.722Z,3.53
2023-05-02T23:16:01.550Z,3.17
2023-05-02T23:19:03.701Z,3.28
2023-05-02T23:22:05.871Z,3.42
2023-05-02T23:25:08.114Z,3.42
2023-05-02T23:28:10.444Z,3.27
2023-05-02T23:31:12.844Z,3.22
2023-05-02T23:34:15.904Z,3.40
2023-05-02T23:37:18.080Z,3.13
2023-05-02T23:40:20.228Z,3.60
2023-05-02T23:43:22.422Z,3.35
2023-05-02T23:46:25.358Z,3.47
2023-05-02T23:49:27.631Z,3.20
2023-05-02T23:52:29.737Z,3.10
2023-05-02T23:55:32.016Z,3.80
2023-05-02T23:58:34.170Z,3.30
